Terminal Aerodrome Forecast
Issued by NWS

Home | Current Version | Previous Version | Text Only | Print | Product List | Glossary On
Versions: 1 2 3 4 5 6 7 8 9 10 11 12 13 14 15 16 17
000
FTUS44 KEPZ 211700
TAFLRU
TAF
KLRU 211723Z 2118/2218 VRB05KT P6SM SCT050 SCT100 BKN200
     FM212000 14007KT P6SM VCTS SCT050CB BKN080 BKN200
      TEMPO 2121/2201 VRB25G35KT 3SM TSRA BKN040CB OVC080
     FM220600 12005KT P6SM VCSH BKN050 OVC080
     FM221600 12005KT P6SM VCTS BKN040CB BKN070=

USA.gov is the U.S. government's official web portal to all federal, state and local government web resources and services.